Time;durP1;ratioP1;P1;durP2;ratioP2;P2;SDS_P1;SDS_P2;PMS_P1;PMS_P2;Temp;Humidity;BMP_temperature;BMP_pressure;BME280_temperature;BME280_humidity;BME280_pressure;Samples;Min_cycle;Max_cycle;Signal;HPM_P1;HPM_P2
2022/02/27 00:00:03;;;;;;;7.47;4.50;;;3.90;99.90;;;;;;5117644;28;20461;-59
2022/02/27 00:02:29;;;;;;;7.73;4.50;;;3.90;99.90;;;;;;5117468;28;20505;-63
2022/02/27 00:04:56;;;;;;;5.50;3.80;;;4.00;99.90;;;;;;5117378;28;20509;-59
2022/02/27 00:07:23;;;;;;;10.13;4.60;;;3.90;99.90;;;;;;5117729;28;20533;-63
2022/02/27 00:09:51;;;;;;;7.50;4.63;;;3.90;99.90;;;;;;5117548;28;20444;-57
2022/02/27 00:12:17;;;;;;;8.90;4.17;;;3.80;99.90;;;;;;5117248;28;20792;-60
2022/02/27 00:14:44;;;;;;;6.30;4.43;;;3.80;99.90;;;;;;5117395;28;20444;-60
2022/02/27 00:17:11;;;;;;;10.63;5.43;;;3.80;99.90;;;;;;5117357;28;20448;-60
2022/02/27 00:19:38;;;;;;;7.77;4.90;;;3.80;99.90;;;;;;5117189;28;20478;-60
2022/02/27 00:22:05;;;;;;;7.03;4.97;;;3.80;99.90;;;;;;5116910;28;20501;-60
2022/02/27 00:24:32;;;;;;;5.50;3.83;;;3.70;99.90;;;;;;5117164;28;20448;-59
2022/02/27 00:27:00;;;;;;;11.13;5.60;;;3.70;99.90;;;;;;5117350;28;20493;-58
2022/02/27 00:29:26;;;;;;;8.13;4.77;;;3.60;99.90;;;;;;5117551;28;20461;-59
2022/02/27 00:31:53;;;;;;;10.87;3.43;;;3.60;99.90;;;;;;5117166;28;20544;-60
2022/02/27 00:34:20;;;;;;;12.40;4.50;;;3.60;99.90;;;;;;5116993;28;20468;-60
2022/02/27 00:36:50;;;;;;;9.30;4.60;;;3.60;99.90;;;;;;5116907;28;20822;-61
2022/02/27 00:39:18;;;;;;;5.73;3.70;;;3.60;99.90;;;;;;5117172;28;20444;-59
2022/02/27 00:41:44;;;;;;;10.40;4.30;;;3.60;99.90;;;;;;5116895;28;20456;-59
2022/02/27 00:44:13;;;;;;;11.47;5.43;;;3.50;99.90;;;;;;5116594;28;20525;-62
2022/02/27 00:46:39;;;;;;;12.20;4.53;;;3.50;99.90;;;;;;5116898;28;20529;-59
2022/02/27 00:49:06;;;;;;;6.93;4.00;;;3.50;99.90;;;;;;5116730;28;20460;-59
2022/02/27 00:51:33;;;;;;;6.17;3.97;;;3.40;99.90;;;;;;5116661;28;20929;-59
2022/02/27 00:53:59;;;;;;;6.50;3.40;;;3.40;99.90;;;;;;5116487;28;20788;-60
2022/02/27 00:56:26;;;;;;;12.03;4.70;;;3.40;99.90;;;;;;5116474;28;21125;-61
2022/02/27 00:58:53;;;;;;;12.10;4.13;;;3.40;99.90;;;;;;5116695;28;20452;-59
2022/02/27 01:01:21;;;;;;;8.10;5.17;;;3.40;99.90;;;;;;5116382;28;20946;-58
2022/02/27 01:03:48;;;;;;;12.13;4.47;;;3.40;99.90;;;;;;5116420;28;20441;-59
2022/02/27 01:06:16;;;;;;;8.10;3.50;;;3.40;99.90;;;;;;5116314;28;20908;-59
2022/02/27 01:08:43;;;;;;;10.07;4.50;;;3.40;99.90;;;;;;5116348;28;20441;-61
2022/02/27 01:11:10;;;;;;;7.87;4.10;;;3.40;99.90;;;;;;5115919;28;20936;-60
2022/02/27 01:13:37;;;;;;;6.73;3.63;;;3.30;99.90;;;;;;5115822;28;20525;-60
2022/02/27 01:16:04;;;;;;;9.50;4.87;;;3.30;99.90;;;;;;5116481;28;20510;-60
2022/02/27 01:18:33;;;;;;;8.80;5.00;;;3.30;99.90;;;;;;5116535;28;20891;-59
2022/02/27 01:21:00;;;;;;;11.50;4.03;;;3.30;99.90;;;;;;5115850;28;21022;-59
2022/02/27 01:23:27;;;;;;;13.60;4.40;;;3.30;99.90;;;;;;5115951;28;20456;-60
2022/02/27 01:25:54;;;;;;;10.13;4.70;;;3.30;99.90;;;;;;5116048;28;20925;-61
2022/02/27 01:28:21;;;;;;;8.10;4.00;;;3.30;99.90;;;;;;5116114;28;20433;-59
2022/02/27 01:30:48;;;;;;;7.70;4.67;;;3.30;99.90;;;;;;5115878;28;20476;-59
2022/02/27 01:33:14;;;;;;;13.97;4.47;;;3.30;99.90;;;;;;5115619;28;20498;-58
2022/02/27 01:35:42;;;;;;;8.97;4.47;;;3.30;99.90;;;;;;5115878;28;20448;-60
2022/02/27 01:38:09;;;;;;;9.53;5.00;;;3.20;99.90;;;;;;5115486;28;20518;-59
2022/02/27 01:40:36;;;;;;;20.47;5.23;;;3.20;99.90;;;;;;5115260;28;20488;-59
2022/02/27 01:43:03;;;;;;;11.67;4.50;;;3.20;99.90;;;;;;5115700;28;20441;-60
2022/02/27 01:45:30;;;;;;;10.90;5.13;;;3.20;99.90;;;;;;5115593;28;20444;-60
2022/02/27 01:47:57;;;;;;;10.53;5.07;;;3.20;99.90;;;;;;5115749;28;20498;-60
2022/02/27 01:50:23;;;;;;;10.07;4.47;;;3.20;99.90;;;;;;5115570;28;20436;-61
2022/02/27 01:52:51;;;;;;;9.33;3.93;;;3.20;99.90;;;;;;5115640;28;20505;-60
2022/02/27 01:55:18;;;;;;;5.87;4.17;;;3.20;99.90;;;;;;5115418;28;20441;-60
2022/02/27 01:57:45;;;;;;;10.90;4.83;;;3.20;99.90;;;;;;5115073;28;20463;-59
2022/02/27 02:00:14;;;;;;;10.90;4.30;;;3.20;99.90;;;;;;5115054;28;20972;-59
2022/02/27 02:02:42;;;;;;;6.70;4.60;;;3.20;99.90;;;;;;5115418;28;20428;-59
2022/02/27 02:05:09;;;;;;;8.43;4.57;;;3.10;99.90;;;;;;5115503;28;20505;-59
2022/02/27 02:07:36;;;;;;;6.13;3.53;;;3.20;99.90;;;;;;5115026;28;20457;-59
2022/02/27 02:10:05;;;;;;;10.43;4.60;;;3.20;99.90;;;;;;5115554;28;20444;-59
2022/02/27 02:12:31;;;;;;;12.73;4.43;;;3.20;99.90;;;;;;5114632;28;20994;-60
2022/02/27 02:14:58;;;;;;;7.80;3.97;;;3.20;99.90;;;;;;5115176;28;20471;-60
2022/02/27 02:17:26;;;;;;;19.20;4.40;;;3.20;99.90;;;;;;5115158;28;20447;-61
2022/02/27 02:19:54;;;;;;;8.60;4.60;;;3.20;99.90;;;;;;5115219;28;20525;-61
2022/02/27 02:22:20;;;;;;;9.07;4.00;;;3.10;99.90;;;;;;5115155;28;20440;-60
2022/02/27 02:24:48;;;;;;;11.67;4.37;;;3.10;99.90;;;;;;5115053;28;20445;-58
2022/02/27 02:27:15;;;;;;;7.43;4.13;;;3.10;99.90;;;;;;5115080;28;20451;-59
2022/02/27 02:29:42;;;;;;;7.80;3.77;;;3.10;99.90;;;;;;5114963;28;20456;-59
2022/02/27 02:32:09;;;;;;;9.93;4.03;;;3.10;99.90;;;;;;5114588;28;20491;-60
2022/02/27 02:34:36;;;;;;;6.20;3.90;;;3.10;99.90;;;;;;5115040;28;20429;-63
2022/02/27 02:37:05;;;;;;;11.93;3.80;;;3.10;99.90;;;;;;5114730;28;20522;-59
2022/02/27 02:39:31;;;;;;;13.20;4.83;;;3.20;99.90;;;;;;5114838;28;20521;-58
2022/02/27 02:41:59;;;;;;;9.47;5.13;;;3.10;99.90;;;;;;5115302;28;20440;-59
2022/02/27 02:44:26;;;;;;;8.00;5.20;;;3.10;99.90;;;;;;5115380;28;20440;-62
2022/02/27 02:46:53;;;;;;;8.57;4.70;;;3.10;99.90;;;;;;5114460;28;20452;-60
2022/02/27 02:49:20;;;;;;;10.37;4.20;;;3.10;99.90;;;;;;5115039;28;20436;-60
2022/02/27 02:51:47;;;;;;;12.97;5.70;;;3.10;99.90;;;;;;5114313;28;20980;-60
2022/02/27 02:54:15;;;;;;;11.10;3.90;;;3.00;99.90;;;;;;5114805;28;20494;-59
2022/02/27 02:56:42;;;;;;;16.97;5.20;;;3.10;99.90;;;;;;5115015;28;20441;-65
2022/02/27 02:59:09;;;;;;;5.17;3.60;;;3.10;99.90;;;;;;5114798;28;20500;-58
2022/02/27 03:01:36;;;;;;;7.97;5.07;;;3.10;99.90;;;;;;5114606;28;20441;-59
2022/02/27 03:04:04;;;;;;;6.80;3.43;;;3.10;99.90;;;;;;5114713;28;20448;-59
2022/02/27 03:06:32;;;;;;;12.60;5.07;;;3.10;99.90;;;;;;5114609;28;20444;-60
2022/02/27 03:08:59;;;;;;;10.40;3.93;;;3.10;99.90;;;;;;5114589;28;20480;-60
2022/02/27 03:11:27;;;;;;;8.40;4.03;;;3.10;99.90;;;;;;5114493;28;20483;-60
2022/02/27 03:13:59;;;;;;;5.43;3.50;;;3.00;99.90;;;;;;5114704;28;20490;-60
2022/02/27 03:16:26;;;;;;;6.27;4.33;;;3.00;99.90;;;;;;5114852;28;20436;-59
2022/02/27 03:18:53;;;;;;;8.23;3.97;;;3.00;99.90;;;;;;5114502;28;20480;-60
2022/02/27 03:21:19;;;;;;;7.37;4.00;;;3.00;99.90;;;;;;5118126;28;20482;-61
2022/02/27 03:23:49;;;;;;;10.13;4.43;;;3.00;99.90;;;;;;5118217;28;20440;-59
2022/02/27 03:26:16;;;;;;;5.30;3.03;;;3.00;99.90;;;;;;5118504;28;20948;-59
2022/02/27 03:28:44;;;;;;;9.40;4.90;;;2.90;99.90;;;;;;5118357;28;20448;-61
2022/02/27 03:31:11;;;;;;;6.67;4.20;;;3.00;99.90;;;;;;5117971;28;20872;-61
2022/02/27 03:33:38;;;;;;;5.57;3.83;;;2.90;99.90;;;;;;5118605;28;20432;-61
2022/02/27 03:36:04;;;;;;;10.10;4.03;;;2.90;99.90;;;;;;5118336;28;20505;-61
2022/02/27 03:38:31;;;;;;;9.90;3.77;;;2.90;99.90;;;;;;5118170;28;20465;-60
2022/02/27 03:41:01;;;;;;;6.03;3.80;;;2.90;99.90;;;;;;5118136;28;20436;-60
2022/02/27 03:43:27;;;;;;;11.03;5.33;;;2.90;99.90;;;;;;5117993;28;20452;-59
2022/02/27 03:45:55;;;;;;;11.23;4.23;;;2.90;99.90;;;;;;5117946;28;20473;-61
2022/02/27 03:48:22;;;;;;;6.53;4.33;;;2.90;99.90;;;;;;5118205;28;20448;-59
2022/02/27 03:50:48;;;;;;;5.50;4.27;;;3.00;99.90;;;;;;5118220;28;20444;-58
2022/02/27 03:53:15;;;;;;;6.90;4.00;;;2.90;99.90;;;;;;5117743;28;20541;-59
2022/02/27 03:55:42;;;;;;;10.17;4.47;;;2.90;99.90;;;;;;5117863;28;20928;-58
2022/02/27 03:58:09;;;;;;;9.47;4.20;;;2.90;99.90;;;;;;5117705;28;20532;-57
2022/02/27 04:00:35;;;;;;;8.87;4.53;;;2.90;99.90;;;;;;5117742;28;20555;-60
2022/02/27 04:03:03;;;;;;;10.27;4.50;;;2.80;99.90;;;;;;5117740;28;20437;-63
2022/02/27 04:05:30;;;;;;;8.87;3.60;;;2.90;99.90;;;;;;5117550;28;20482;-59
2022/02/27 04:07:58;;;;;;;5.50;3.80;;;2.90;99.90;;;;;;5117506;28;20452;-59
2022/02/27 04:10:24;;;;;;;9.93;4.17;;;2.90;99.90;;;;;;5117556;28;20460;-60
2022/02/27 04:12:51;;;;;;;9.27;3.60;;;2.90;99.90;;;;;;5117140;28;20948;-59
2022/02/27 04:15:18;;;;;;;7.20;4.03;;;2.80;99.90;;;;;;5117379;28;20901;-58
2022/02/27 04:17:45;;;;;;;7.10;4.20;;;2.80;99.90;;;;;;5117223;28;20596;-60
2022/02/27 04:20:13;;;;;;;4.73;4.07;;;2.80;99.90;;;;;;5117092;28;20440;-58
2022/02/27 04:22:40;;;;;;;7.73;4.57;;;2.80;99.90;;;;;;5117155;28;20448;-59
2022/02/27 04:25:07;;;;;;;11.73;4.97;;;2.80;99.90;;;;;;5117525;28;20460;-61
2022/02/27 04:27:34;;;;;;;10.37;4.03;;;2.80;99.90;;;;;;5117057;28;20955;-59
2022/02/27 04:30:03;;;;;;;6.57;3.80;;;2.80;99.90;;;;;;5116502;28;20943;-61
2022/02/27 04:32:30;;;;;;;6.00;4.30;;;2.80;99.90;;;;;;5116673;28;20480;-61
2022/02/27 04:34:57;;;;;;;13.13;4.13;;;2.80;99.90;;;;;;5116983;28;20521;-59
2022/02/27 04:37:25;;;;;;;10.20;3.77;;;2.80;99.90;;;;;;5117137;28;20536;-59
2022/02/27 04:39:51;;;;;;;11.40;4.40;;;2.80;99.90;;;;;;5117047;28;20432;-63
2022/02/27 04:42:18;;;;;;;7.77;4.40;;;2.70;99.90;;;;;;5117010;28;20437;-58
2022/02/27 04:44:45;;;;;;;10.37;4.83;;;2.70;99.90;;;;;;5116975;28;20460;-59
2022/02/27 04:47:12;;;;;;;6.47;3.23;;;2.70;99.90;;;;;;5116812;28;20513;-62
2022/02/27 04:49:38;;;;;;;10.17;6.10;;;2.70;99.90;;;;;;5116733;28;20449;-59
2022/02/27 04:52:06;;;;;;;8.57;5.33;;;2.70;99.90;;;;;;5116526;28;20484;-58
2022/02/27 04:54:35;;;;;;;7.70;4.13;;;2.70;99.90;;;;;;5116663;28;20441;-61
2022/02/27 04:57:02;;;;;;;7.33;4.90;;;2.60;99.90;;;;;;5116471;28;20444;-60
2022/02/27 04:59:28;;;;;;;10.30;4.97;;;2.60;99.90;;;;;;5116582;28;20970;-61
2022/02/27 05:01:55;;;;;;;8.33;4.30;;;2.70;99.90;;;;;;5116237;28;20465;-63
2022/02/27 05:04:22;;;;;;;6.10;4.17;;;2.60;99.90;;;;;;5116783;28;20468;-58
2022/02/27 05:06:49;;;;;;;8.43;4.40;;;2.60;99.90;;;;;;5116438;28;20998;-61
2022/02/27 05:09:17;;;;;;;8.13;4.30;;;2.60;99.90;;;;;;5116561;28;20474;-59
2022/02/27 05:11:46;;;;;;;8.20;5.13;;;2.60;99.90;;;;;;5116542;28;20484;-60
2022/02/27 05:14:13;;;;;;;18.23;5.83;;;2.60;99.90;;;;;;5116667;28;20448;-59
2022/02/27 05:16:40;;;;;;;10.40;4.70;;;2.50;99.90;;;;;;5116851;28;20469;-60
2022/02/27 05:19:06;;;;;;;10.03;4.20;;;2.50;99.90;;;;;;5116881;28;20828;-65
2022/02/27 05:21:33;;;;;;;11.80;5.43;;;2.60;99.90;;;;;;5116058;28;20460;-59
2022/02/27 05:24:00;;;;;;;9.30;4.23;;;2.60;99.90;;;;;;5115625;28;20448;-59
2022/02/27 05:26:27;;;;;;;14.43;4.40;;;2.60;99.90;;;;;;5116010;28;20456;-58
2022/02/27 05:28:55;;;;;;;12.60;4.30;;;2.60;99.90;;;;;;5116565;28;20545;-60
2022/02/27 05:31:22;;;;;;;5.07;3.67;;;2.60;99.90;;;;;;5116123;28;20937;-59
2022/02/27 05:33:49;;;;;;;8.40;5.33;;;2.60;99.90;;;;;;5115996;28;20492;-61
2022/02/27 05:36:15;;;;;;;9.40;3.97;;;2.60;99.90;;;;;;5116159;28;20428;-59
2022/02/27 05:38:42;;;;;;;7.03;4.30;;;2.60;99.90;;;;;;5116080;28;20452;-60
2022/02/27 05:41:09;;;;;;;7.13;4.80;;;2.60;99.90;;;;;;5113322;28;20448;-60
2022/02/27 05:43:36;;;;;;;6.73;4.63;;;2.60;99.90;;;;;;5106723;28;20455;-59
2022/02/27 05:46:04;;;;;;;6.93;3.60;;;2.60;99.90;;;;;;5114248;28;20456;-59
2022/02/27 05:48:31;;;;;;;9.90;5.43;;;2.60;99.90;;;;;;5095208;28;20444;-65
2022/02/27 05:50:57;;;;;;;7.13;4.07;;;2.50;99.90;;;;;;5105769;28;20952;-62
2022/02/27 05:53:24;;;;;;;7.47;3.53;;;2.60;99.90;;;;;;5115410;28;20468;-59
2022/02/27 05:55:56;;;;;;;9.77;5.30;;;2.50;99.90;;;;;;5114005;28;20494;-59
2022/02/27 05:58:23;;;;;;;13.00;4.40;;;2.50;99.90;;;;;;5113233;28;20464;-59
2022/02/27 06:00:49;;;;;;;13.13;5.93;;;2.50;99.90;;;;;;5107076;28;20445;-59
2022/02/27 06:03:17;;;;;;;6.80;4.30;;;2.50;99.90;;;;;;5115505;28;20900;-61
2022/02/27 06:05:44;;;;;;;9.33;5.37;;;2.50;99.90;;;;;;5115599;28;20445;-59
2022/02/27 06:08:12;;;;;;;9.70;4.80;;;2.50;99.90;;;;;;5115613;28;20440;-60
2022/02/27 06:10:39;;;;;;;9.57;5.13;;;2.50;99.90;;;;;;5110978;28;20526;-59
2022/02/27 06:13:05;;;;;;;8.67;4.97;;;2.50;99.90;;;;;;5114756;28;20475;-61
2022/02/27 06:15:32;;;;;;;7.77;4.87;;;2.50;99.90;;;;;;5115379;28;20460;-60
2022/02/27 06:17:59;;;;;;;14.20;6.90;;;2.50;99.90;;;;;;5115425;28;20494;-60
2022/02/27 06:20:27;;;;;;;7.47;4.80;;;2.50;99.90;;;;;;5098581;28;20437;-58
2022/02/27 06:22:54;;;;;;;10.10;5.20;;;2.60;99.90;;;;;;5115394;28;20425;-60
2022/02/27 06:25:21;;;;;;;9.13;4.70;;;2.60;99.90;;;;;;5115223;28;20510;-59
2022/02/27 06:27:48;;;;;;;14.53;4.90;;;2.60;99.90;;;;;;5113067;28;20456;-59
2022/02/27 06:30:16;;;;;;;8.00;4.83;;;2.60;99.90;;;;;;5107928;28;20461;-58
2022/02/27 06:32:44;;;;;;;10.03;4.90;;;2.60;99.90;;;;;;5108063;28;20548;-59
2022/02/27 06:35:12;;;;;;;8.33;4.37;;;2.60;99.90;;;;;;5109404;28;20445;-59
2022/02/27 06:37:40;;;;;;;8.83;4.63;;;2.60;99.90;;;;;;5113603;28;20440;-59
2022/02/27 06:40:08;;;;;;;9.73;4.60;;;2.60;99.90;;;;;;5114951;28;20460;-60
2022/02/27 06:42:35;;;;;;;10.40;5.33;;;2.60;99.90;;;;;;5114734;28;20531;-59
2022/02/27 06:45:03;;;;;;;8.47;5.10;;;2.60;99.90;;;;;;5114957;28;20474;-58
2022/02/27 06:47:29;;;;;;;9.30;4.30;;;2.60;99.90;;;;;;5115171;28;20428;-58
2022/02/27 06:49:56;;;;;;;18.07;5.40;;;2.70;99.90;;;;;;5114933;28;20897;-61
2022/02/27 06:52:23;;;;;;;13.83;6.57;;;2.70;99.90;;;;;;5114641;28;20964;-56
2022/02/27 06:54:51;;;;;;;11.03;5.23;;;2.60;99.90;;;;;;5118034;28;20449;-61
2022/02/27 06:57:18;;;;;;;11.10;5.30;;;2.70;99.90;;;;;;5118834;28;20982;-60
2022/02/27 06:59:44;;;;;;;5.53;4.20;;;2.70;99.90;;;;;;5119361;28;20452;-60
2022/02/27 07:02:12;;;;;;;11.10;5.50;;;2.60;99.90;;;;;;5119179;28;20762;-59
2022/02/27 07:04:39;;;;;;;12.33;4.93;;;2.70;99.90;;;;;;5119082;28;20571;-61
2022/02/27 07:07:06;;;;;;;14.10;6.50;;;2.80;99.90;;;;;;5118970;28;20913;-60
2022/02/27 07:09:33;;;;;;;10.93;5.83;;;2.80;99.90;;;;;;5119295;28;20468;-61
2022/02/27 07:12:01;;;;;;;8.03;4.83;;;2.70;99.90;;;;;;5118881;28;20493;-61
2022/02/27 07:14:28;;;;;;;12.40;4.70;;;2.80;99.90;;;;;;5118868;28;20460;-59
2022/02/27 07:16:54;;;;;;;8.87;6.10;;;2.70;99.90;;;;;;5118933;28;20459;-60
2022/02/27 07:19:21;;;;;;;7.47;5.03;;;2.80;99.90;;;;;;5118897;28;20811;-58
2022/02/27 07:21:48;;;;;;;8.63;6.10;;;2.80;99.90;;;;;;5118452;28;20812;-59
2022/02/27 07:24:15;;;;;;;10.63;5.93;;;2.90;99.90;;;;;;5118483;28;20457;-61
2022/02/27 07:26:42;;;;;;;12.20;5.70;;;2.90;99.90;;;;;;5118676;28;20440;-61
2022/02/27 07:29:10;;;;;;;9.40;5.37;;;2.90;99.90;;;;;;5118416;28;20505;-62
2022/02/27 07:31:37;;;;;;;10.30;5.30;;;2.90;99.90;;;;;;5118244;28;20456;-60
2022/02/27 07:34:03;;;;;;;10.30;6.10;;;2.90;99.90;;;;;;5118486;28;20484;-59
2022/02/27 07:36:30;;;;;;;13.60;6.43;;;2.90;99.90;;;;;;5118235;28;20509;-59
2022/02/27 07:38:57;;;;;;;12.33;6.20;;;2.90;99.90;;;;;;5118136;28;20551;-59
2022/02/27 07:41:24;;;;;;;8.60;5.70;;;3.00;99.90;;;;;;5118617;28;20518;-60
2022/02/27 07:43:51;;;;;;;11.60;6.03;;;3.10;99.90;;;;;;5118467;28;20573;-60
2022/02/27 07:46:19;;;;;;;15.93;8.50;;;3.10;99.90;;;;;;5118289;28;20472;-61
2022/02/27 07:48:45;;;;;;;13.67;8.60;;;3.20;99.90;;;;;;5118274;28;20464;-59
2022/02/27 07:51:14;;;;;;;16.30;8.97;;;3.30;99.90;;;;;;5118799;28;20475;-60
2022/02/27 07:53:41;;;;;;;12.03;7.30;;;3.30;99.90;;;;;;5118119;28;20472;-59
2022/02/27 07:56:07;;;;;;;15.77;9.03;;;3.30;99.90;;;;;;5118352;28;20440;-60
2022/02/27 07:58:34;;;;;;;16.37;8.97;;;3.40;99.90;;;;;;5118399;28;20513;-60
2022/02/27 08:01:02;;;;;;;13.70;9.73;;;3.40;99.90;;;;;;5119187;28;20468;-50
2022/02/27 08:03:32;;;;;;;12.03;9.77;;;3.50;99.90;;;;;;5117686;28;20956;-55
2022/02/27 08:05:59;;;;;;;25.47;10.70;;;3.50;99.90;;;;;;5117057;28;20429;-54
2022/02/27 08:08:26;;;;;;;25.27;8.80;;;3.50;99.90;;;;;;5117549;28;20965;-56
2022/02/27 08:10:52;;;;;;;17.13;9.67;;;3.60;99.90;;;;;;5117955;28;20461;-54
2022/02/27 08:13:19;;;;;;;17.23;11.13;;;3.50;99.90;;;;;;5117543;28;20480;-56
2022/02/27 08:15:46;;;;;;;13.57;7.23;;;3.50;99.90;;;;;;5117730;28;20444;-50
2022/02/27 08:18:13;;;;;;;10.73;6.67;;;4.20;99.90;;;;;;5117889;28;20436;-56
2022/02/27 08:20:40;;;;;;;13.43;7.80;;;3.60;99.90;;;;;;5117627;28;20863;-52
2022/02/27 08:23:07;;;;;;;19.60;7.47;;;3.70;99.90;;;;;;5117821;28;20441;-53
2022/02/27 08:25:34;;;;;;;17.97;10.10;;;3.70;99.90;;;;;;5117752;28;20441;-58
2022/02/27 08:28:01;;;;;;;22.40;14.20;;;3.70;99.90;;;;;;5117244;28;20983;-55
2022/02/27 08:30:27;;;;;;;19.87;11.13;;;3.70;99.90;;;;;;5117555;28;20444;-54
2022/02/27 08:32:54;;;;;;;20.00;12.73;;;3.80;99.90;;;;;;5117241;28;20492;-53
2022/02/27 08:35:20;;;;;;;23.33;14.00;;;3.80;99.90;;;;;;5117480;28;20452;-56
2022/02/27 08:37:49;;;;;;;23.70;14.10;;;3.80;99.90;;;;;;5117174;28;20467;-54
2022/02/27 08:40:15;;;;;;;22.77;13.30;;;3.90;99.90;;;;;;5099499;28;20521;-55
2022/02/27 08:42:42;;;;;;;35.87;19.07;;;3.80;99.90;;;;;;5117104;28;20928;-56
2022/02/27 08:45:10;;;;;;;34.50;18.53;;;3.90;99.90;;;;;;5117285;28;20464;-59
2022/02/27 08:47:36;;;;;;;30.60;19.67;;;4.00;99.90;;;;;;5117310;28;20459;-56
2022/02/27 08:50:04;;;;;;;24.37;15.63;;;4.00;99.90;;;;;;5117090;28;20513;-51
2022/02/27 08:52:31;;;;;;;25.73;15.77;;;4.20;99.90;;;;;;5117057;28;20512;-54
2022/02/27 08:54:59;;;;;;;34.57;18.37;;;4.30;99.90;;;;;;5116987;28;20440;-55
2022/02/27 08:57:26;;;;;;;24.87;15.27;;;4.50;99.90;;;;;;5116912;28;20496;-54
2022/02/27 08:59:53;;;;;;;23.23;14.87;;;4.60;99.90;;;;;;5116862;28;20452;-55
2022/02/27 09:02:19;;;;;;;28.70;15.63;;;4.70;99.90;;;;;;5116771;28;20847;-54
2022/02/27 09:04:46;;;;;;;26.27;14.07;;;4.80;99.90;;;;;;5116611;28;20938;-56
2022/02/27 09:07:13;;;;;;;24.13;13.43;;;4.90;99.90;;;;;;5116737;28;20467;-56
2022/02/27 09:09:42;;;;;;;27.10;15.53;;;5.00;99.90;;;;;;5116799;28;20483;-53
2022/02/27 09:12:12;;;;;;;33.87;17.80;;;5.20;99.90;;;;;;5116839;28;20446;-53
2022/02/27 09:14:41;;;;;;;27.50;13.70;;;5.30;99.90;;;;;;5116548;28;20487;-55
2022/02/27 09:17:08;;;;;;;28.80;13.47;;;5.40;99.90;;;;;;5116577;28;20457;-53
2022/02/27 09:19:35;;;;;;;25.77;14.47;;;5.40;99.90;;;;;;5116433;28;20445;-51
2022/02/27 09:22:01;;;;;;;23.60;11.73;;;5.40;99.90;;;;;;5116218;28;20449;-55
2022/02/27 09:24:28;;;;;;;21.40;11.60;;;5.50;99.90;;;;;;5116398;28;20505;-57
2022/02/27 09:26:55;;;;;;;20.40;12.20;;;5.60;99.90;;;;;;5116096;28;20457;-51
2022/02/27 09:29:24;;;;;;;23.30;13.93;;;5.70;99.90;;;;;;5116370;28;20472;-57
2022/02/27 09:31:51;;;;;;;29.87;14.97;;;5.70;99.90;;;;;;5116215;28;20444;-54
2022/02/27 09:34:18;;;;;;;30.30;14.57;;;5.60;99.90;;;;;;5116233;28;20960;-57
2022/02/27 09:36:44;;;;;;;24.00;13.83;;;5.70;99.90;;;;;;5116303;28;20448;-53
2022/02/27 09:39:11;;;;;;;22.43;13.60;;;5.70;99.90;;;;;;5115726;28;20474;-56
2022/02/27 09:41:38;;;;;;;28.23;15.97;;;5.60;99.90;;;;;;5116051;28;20444;-56
2022/02/27 09:44:07;;;;;;;29.03;18.70;;;5.70;99.90;;;;;;5115824;28;20464;-55
2022/02/27 09:46:35;;;;;;;29.40;16.60;;;5.80;99.90;;;;;;5116086;28;20455;-57
2022/02/27 09:49:01;;;;;;;26.80;13.77;;;5.90;99.90;;;;;;5115743;28;20440;-54
2022/02/27 09:51:28;;;;;;;28.40;14.53;;;5.90;99.90;;;;;;5115950;28;20521;-57
2022/02/27 09:53:55;;;;;;;20.20;13.67;;;5.90;99.90;;;;;;5098063;28;20541;-56
2022/02/27 09:56:22;;;;;;;33.50;18.57;;;6.00;99.90;;;;;;5115724;28;20468;-52
2022/02/27 09:58:49;;;;;;;32.10;17.13;;;5.90;99.90;;;;;;5116432;28;20436;-60
2022/02/27 10:01:18;;;;;;;28.00;16.17;;;5.80;99.90;;;;;;5115847;28;20456;-56
2022/02/27 10:03:46;;;;;;;27.37;15.30;;;5.70;99.90;;;;;;5115830;28;20963;-53
2022/02/27 10:06:17;;;;;;;34.07;14.87;;;5.70;99.90;;;;;;5115647;28;20549;-50
2022/02/27 10:08:45;;;;;;;21.07;12.70;;;5.70;99.90;;;;;;5115910;28;20479;-53
2022/02/27 10:11:14;;;;;;;28.97;12.43;;;5.80;99.90;;;;;;5115788;28;20441;-55
2022/02/27 10:13:45;;;;;;;26.73;13.13;;;5.70;99.90;;;;;;5115414;28;20840;-55
2022/02/27 10:16:15;;;;;;;22.03;11.57;;;5.70;99.90;;;;;;5115467;28;20891;-54
2022/02/27 10:18:45;;;;;;;20.13;10.30;;;5.70;99.90;;;;;;5115582;28;20444;-50
2022/02/27 10:21:21;;;;;;;14.60;9.23;;;5.70;99.90;;;;;;5115232;28;20971;-52
2022/02/27 10:23:56;;;;;;;25.03;11.97;;;5.90;99.90;;;;;;5115682;28;20447;-51
2022/02/27 10:26:24;;;;;;;22.47;11.27;;;6.10;99.90;;;;;;5115568;28;20520;-53
2022/02/27 10:29:04;;;;;;;23.93;12.80;;;6.30;99.90;;;;;;5114802;28;20468;-55
2022/02/27 10:31:31;;;;;;;28.40;12.43;;;6.60;99.90;;;;;;5115062;28;20938;-53
2022/02/27 10:33:58;;;;;;;24.07;11.67;;;6.90;99.90;;;;;;5115226;28;20800;-58
2022/02/27 10:36:26;;;;;;;18.60;11.77;;;7.40;99.90;;;;;;5115315;28;20467;-59
2022/02/27 10:39:00;;;;;;;26.83;12.97;;;7.70;99.90;;;;;;5114950;28;20521;-55
2022/02/27 10:41:38;;;;;;;22.40;11.40;;;8.10;99.90;;;;;;5115193;28;20429;-55
2022/02/27 10:44:07;;;;;;;26.33;13.03;;;8.50;99.90;;;;;;5115051;28;20479;-57
2022/02/27 10:46:36;;;;;;;23.50;11.73;;;9.20;99.90;;;;;;5115203;28;20440;-59
2022/02/27 10:49:03;;;;;;;21.90;12.03;;;9.60;99.90;;;;;;5115248;28;20953;-56
2022/02/27 10:51:34;;;;;;;24.67;15.93;;;9.70;99.90;;;;;;5115038;28;20782;-55
2022/02/27 10:54:01;;;;;;;20.40;12.50;;;10.00;99.90;;;;;;5115034;28;20464;-53
2022/02/27 10:56:33;;;;;;;21.70;12.90;;;10.30;99.90;;;;;;5114735;28;20475;-49
2022/02/27 10:59:12;;;;;;;21.53;13.93;;;10.70;99.90;;;;;;5115070;28;20444;-53
2022/02/27 11:01:40;;;;;;;24.70;13.80;;;10.90;99.90;;;;;;5114985;28;20464;-51
2022/02/27 11:04:08;;;;;;;25.23;13.40;;;11.00;99.90;;;;;;5115273;28;20436;-57
2022/02/27 11:06:36;;;;;;;26.90;13.57;;;10.90;99.90;;;;;;5115006;28;20453;-58
2022/02/27 11:09:03;;;;;;;19.83;12.73;;;10.90;99.90;;;;;;5114962;28;20476;-55
2022/02/27 11:11:31;;;;;;;21.50;12.90;;;11.00;99.90;;;;;;5115409;28;20451;-54
2022/02/27 11:13:59;;;;;;;26.27;13.60;;;11.00;99.90;;;;;;5115069;28;20492;-56
2022/02/27 11:16:25;;;;;;;25.93;14.17;;;11.10;99.90;;;;;;5115062;28;20494;-54
2022/02/27 11:18:52;;;;;;;25.40;14.13;;;10.90;99.90;;;;;;5114614;28;20898;-52
2022/02/27 11:21:20;;;;;;;22.90;13.60;;;10.70;99.90;;;;;;5114402;28;20889;-56
2022/02/27 11:23:50;;;;;;;24.33;13.50;;;10.60;99.90;;;;;;5114748;28;20447;-57
2022/02/27 11:26:19;;;;;;;25.43;13.57;;;10.50;99.90;;;;;;5114796;28;20472;-54
2022/02/27 11:28:46;;;;;;;26.23;12.97;;;10.40;99.90;;;;;;5114583;28;20966;-53
2022/02/27 11:31:15;;;;;;;24.13;12.03;;;10.10;99.90;;;;;;5114579;28;20478;-58
2022/02/27 11:33:42;;;;;;;21.60;11.63;;;9.80;99.90;;;;;;5114906;28;20600;-55
2022/02/27 11:36:20;;;;;;;23.37;12.67;;;10.10;99.90;;;;;;5114910;28;20900;-56
2022/02/27 11:38:59;;;;;;;22.80;12.17;;;9.20;99.90;;;;;;5114719;28;20718;-55
2022/02/27 11:41:26;;;;;;;22.63;11.87;;;8.90;99.90;;;;;;5116614;28;20485;-52
2022/02/27 11:43:55;;;;;;;25.80;13.80;;;8.80;99.90;;;;;;5118274;28;20916;-56
2022/02/27 11:46:32;;;;;;;22.03;11.07;;;8.60;99.90;;;;;;5118426;28;20517;-53
2022/02/27 11:49:02;;;;;;;27.37;12.90;;;8.30;99.90;;;;;;5118218;28;20440;-55
2022/02/27 11:51:48;;;;;;;24.93;14.43;;;8.00;99.90;;;;;;5118282;28;20449;-55
2022/02/27 11:54:18;;;;;;;25.27;11.90;;;8.00;99.90;;;;;;5117505;28;20475;-55
2022/02/27 11:56:46;;;;;;;25.93;10.70;;;7.90;99.90;;;;;;5118267;28;20531;-54
2022/02/27 11:59:14;;;;;;;27.60;12.83;;;7.70;99.90;;;;;;5118035;28;20436;-56
2022/02/27 12:01:56;;;;;;;24.03;13.87;;;7.50;99.90;;;;;;5118239;28;20555;-53
2022/02/27 12:04:28;;;;;;;25.30;12.77;;;7.50;99.90;;;;;;5118080;28;20425;-54
2022/02/27 12:07:05;;;;;;;28.20;11.90;;;7.40;99.90;;;;;;5117901;28;20524;-61
2022/02/27 12:10:00;;;;;;;23.97;14.23;;;7.40;99.90;;;;;;5117654;28;20429;-55
2022/02/27 12:12:59;;;;;;;30.00;13.03;;;7.30;99.90;;;;;;5117719;28;20444;-53
2022/02/27 12:15:31;;;;;;;31.67;14.10;;;7.40;99.90;;;;;;5117618;28;20472;-58
2022/02/27 12:18:02;;;;;;;31.67;13.83;;;7.50;99.90;;;;;;5117617;28;20439;-52
2022/02/27 12:20:47;;;;;;;27.63;14.10;;;7.60;99.90;;;;;;5117706;28;20468;-54
2022/02/27 12:23:48;;;;;;;25.40;12.90;;;7.60;99.90;;;;;;5117516;28;20610;-58
2022/02/27 12:26:52;;;;;;;30.23;16.07;;;7.70;99.90;;;;;;5117898;28;20475;-56
2022/02/27 12:29:35;;;;;;;23.13;13.97;;;7.60;99.90;;;;;;5117309;28;20420;-53
2022/02/27 12:32:08;;;;;;;24.37;13.83;;;7.60;99.90;;;;;;5117513;28;20468;-56
2022/02/27 12:34:36;;;;;;;30.40;15.30;;;7.50;99.90;;;;;;5117128;28;20468;-55
2022/02/27 12:37:04;;;;;;;30.10;17.60;;;7.50;99.90;;;;;;5117265;28;20475;-54
2022/02/27 12:39:34;;;;;;;25.87;13.20;;;7.50;99.90;;;;;;5117353;28;20444;-52
2022/02/27 12:42:01;;;;;;;31.60;16.47;;;7.50;99.90;;;;;;5117084;28;20456;-56
2022/02/27 12:44:32;;;;;;;29.77;16.47;;;7.50;99.90;;;;;;5117003;28;20472;-56
2022/02/27 12:47:01;;;;;;;28.47;16.37;;;7.50;99.90;;;;;;5117415;28;20480;-56
2022/02/27 12:52:15;;;;;;;26.97;14.40;;;7.60;99.90;;;;;;5116799;28;20884;-60